Time;durP1;ratioP1;P1;durP2;ratioP2;P2;SDS_P1;SDS_P2;PMS_P1;PMS_P2;Temp;Humidity;BMP_temperature;BMP_pressure;BME280_temperature;BME280_humidity;BME280_pressure;Samples;Min_cycle;Max_cycle;Signal;HPM_P1;HPM_P2
2023/07/28 00:01:14;;;;;;;2.97;2.35;;;18.60;99.90;;;;;;5053636;28;20320;-59
2023/07/28 00:03:40;;;;;;;4.40;2.78;;;18.60;99.90;;;;;;5054066;28;20209;-59
2023/07/28 00:06:07;;;;;;;3.30;2.55;;;18.60;99.90;;;;;;5053420;28;20205;-60
2023/07/28 00:08:34;;;;;;;5.28;2.40;;;18.50;99.90;;;;;;5053765;28;20238;-60
2023/07/28 00:11:00;;;;;;;3.58;2.38;;;18.50;99.90;;;;;;5053814;28;20198;-59
2023/07/28 00:13:27;;;;;;;2.95;2.55;;;18.50;99.90;;;;;;5053667;28;20211;-59
2023/07/28 00:15:55;;;;;;;2.40;2.20;;;18.50;99.90;;;;;;5053254;28;20487;-58
2023/07/28 00:18:22;;;;;;;4.53;2.55;;;18.50;99.90;;;;;;5053783;28;20572;-60
2023/07/28 00:20:48;;;;;;;3.70;2.58;;;18.40;99.90;;;;;;5053908;28;20252;-59
2023/07/28 00:23:15;;;;;;;3.40;2.58;;;18.40;99.90;;;;;;5053754;28;20229;-59
2023/07/28 00:25:42;;;;;;;4.00;2.10;;;18.40;99.90;;;;;;5053781;28;20206;-59
2023/07/28 00:28:08;;;;;;;2.97;2.28;;;18.30;99.90;;;;;;5071611;22;20234;-63
2023/07/28 00:30:35;;;;;;;3.47;2.10;;;18.40;99.90;;;;;;5032952;28;20575;-62
2023/07/28 00:33:03;;;;;;;5.03;1.75;;;18.50;99.90;;;;;;5032882;28;20214;-63
2023/07/28 00:35:30;;;;;;;4.55;2.60;;;18.50;99.90;;;;;;5033102;28;20214;-62
2023/07/28 00:37:57;;;;;;;2.47;2.17;;;18.50;99.90;;;;;;5032156;28;20234;-62
2023/07/28 00:40:23;;;;;;;3.70;2.28;;;18.60;99.90;;;;;;5032932;28;20229;-62
2023/07/28 00:42:51;;;;;;;2.78;2.28;;;18.60;99.90;;;;;;5032952;28;20206;-62
2023/07/28 00:45:18;;;;;;;4.22;2.33;;;18.60;99.90;;;;;;5032753;28;20210;-63
2023/07/28 00:47:45;;;;;;;2.97;2.28;;;18.60;99.90;;;;;;5032393;28;20226;-62
2023/07/28 00:50:13;;;;;;;3.35;2.30;;;18.60;99.90;;;;;;5032737;28;20206;-63
2023/07/28 00:52:40;;;;;;;2.67;2.30;;;18.70;99.90;;;;;;5033129;28;20607;-62
2023/07/28 00:55:07;;;;;;;3.17;2.30;;;18.60;99.90;;;;;;5032792;28;20210;-62
2023/07/28 00:57:34;;;;;;;2.72;2.38;;;18.60;99.90;;;;;;5032260;28;20210;-62
2023/07/28 01:00:02;;;;;;;2.67;2.40;;;18.60;99.90;;;;;;5032679;28;20329;-62
2023/07/28 01:02:29;;;;;;;4.32;2.42;;;18.60;99.90;;;;;;5032723;28;20213;-63
2023/07/28 01:04:56;;;;;;;3.80;2.30;;;18.50;99.90;;;;;;5032614;28;20249;-62
2023/07/28 01:07:31;;;;;;;5.13;2.40;;;18.60;99.90;;;;;;5032464;28;20691;-63
2023/07/28 01:10:11;;;;;;;3.75;2.10;;;18.60;99.90;;;;;;5032419;28;20228;-62
2023/07/28 01:12:37;;;;;;;4.18;2.13;;;18.60;99.90;;;;;;5032348;28;20221;-62
2023/07/28 01:15:05;;;;;;;2.30;2.10;;;18.60;99.90;;;;;;5032506;28;20210;-62
2023/07/28 01:17:31;;;;;;;2.47;1.90;;;18.60;99.90;;;;;;5032023;28;20206;-62
2023/07/28 01:19:58;;;;;;;3.33;2.10;;;18.60;99.90;;;;;;5032181;28;20206;-62
2023/07/28 01:22:46;;;;;;;2.65;2.28;;;18.60;99.90;;;;;;5032054;28;20264;-61
2023/07/28 01:25:20;;;;;;;3.13;2.10;;;18.70;99.90;;;;;;5032322;28;20206;-61
2023/07/28 01:27:49;;;;;;;4.90;2.05;;;18.70;99.90;;;;;;5031727;28;20209;-62
2023/07/28 01:30:16;;;;;;;2.42;2.17;;;18.80;99.90;;;;;;5031962;28;20559;-62
2023/07/28 01:32:43;;;;;;;3.47;1.95;;;18.80;99.90;;;;;;5032152;28;20543;-62
2023/07/28 01:35:10;;;;;;;2.08;1.85;;;18.80;99.90;;;;;;5031780;28;20212;-62
2023/07/28 01:37:37;;;;;;;3.42;2.30;;;18.80;99.90;;;;;;5031565;28;20214;-62
2023/07/28 01:40:04;;;;;;;5.03;2.20;;;18.80;99.90;;;;;;5031682;28;20217;-62
2023/07/28 01:42:31;;;;;;;2.22;1.98;;;18.70;99.90;;;;;;5031610;28;20685;-62
2023/07/28 01:44:59;;;;;;;2.83;2.05;;;18.50;99.90;;;;;;5031743;28;20213;-61
2023/07/28 01:47:26;;;;;;;3.33;2.38;;;18.50;99.90;;;;;;5031359;28;20202;-62
2023/07/28 01:49:52;;;;;;;3.33;2.30;;;18.30;99.90;;;;;;5030783;28;20325;-63
2023/07/28 01:52:19;;;;;;;2.45;2.25;;;18.30;99.90;;;;;;5031414;28;20206;-61
2023/07/28 01:54:46;;;;;;;5.75;2.30;;;18.20;99.90;;;;;;5031432;28;20206;-62
2023/07/28 01:57:12;;;;;;;4.82;2.38;;;18.00;99.90;;;;;;5031121;28;20207;-62
2023/07/28 01:59:39;;;;;;;4.03;2.65;;;18.00;99.90;;;;;;5031408;28;20234;-62
2023/07/28 02:02:07;;;;;;;2.75;2.30;;;18.00;99.90;;;;;;5031178;28;20222;-62
2023/07/28 02:04:34;;;;;;;3.90;2.47;;;18.10;99.90;;;;;;5031303;28;20647;-62
2023/07/28 02:07:01;;;;;;;5.97;2.65;;;18.10;99.90;;;;;;5031195;28;20206;-62
2023/07/28 02:09:27;;;;;;;3.13;2.70;;;18.00;99.90;;;;;;5031219;28;20230;-62
2023/07/28 02:11:54;;;;;;;2.70;2.50;;;18.10;99.90;;;;;;5031125;28;20209;-61
2023/07/28 02:14:21;;;;;;;4.07;2.60;;;18.10;99.90;;;;;;5031282;28;20206;-61
2023/07/28 02:16:47;;;;;;;4.03;2.38;;;18.10;99.90;;;;;;5030968;28;20213;-61
2023/07/28 02:19:15;;;;;;;2.83;2.60;;;18.10;99.90;;;;;;5031362;28;20222;-61
2023/07/28 02:21:42;;;;;;;3.30;2.85;;;18.10;99.90;;;;;;5031007;28;20226;-62
2023/07/28 02:24:09;;;;;;;3.88;2.55;;;18.10;99.90;;;;;;5031248;28;20213;-61
2023/07/28 02:26:35;;;;;;;4.32;2.63;;;18.00;99.90;;;;;;5030969;28;20210;-61
2023/07/28 02:29:02;;;;;;;4.65;3.67;;;17.90;99.90;;;;;;5031020;28;20234;-62
2023/07/28 02:31:29;;;;;;;2.67;2.47;;;17.90;99.90;;;;;;5030966;28;20205;-62
2023/07/28 02:33:56;;;;;;;4.03;2.78;;;17.90;99.90;;;;;;5031093;28;20230;-62
2023/07/28 02:36:24;;;;;;;3.58;2.80;;;17.90;99.90;;;;;;5030790;28;20221;-62
2023/07/28 02:38:51;;;;;;;3.95;2.80;;;18.00;99.90;;;;;;5031031;28;20230;-63
2023/07/28 02:41:18;;;;;;;5.35;2.97;;;18.00;99.90;;;;;;5030884;28;20233;-61
2023/07/28 02:43:44;;;;;;;3.63;3.20;;;17.90;99.90;;;;;;5031276;28;20232;-62
2023/07/28 02:46:11;;;;;;;3.20;2.90;;;17.90;99.90;;;;;;5030597;28;20268;-62
2023/07/28 02:48:38;;;;;;;7.43;4.47;;;17.90;99.90;;;;;;5030792;28;20234;-62
2023/07/28 02:51:04;;;;;;;7.88;6.00;;;18.00;99.90;;;;;;5031073;28;20206;-62
2023/07/28 02:53:32;;;;;;;13.50;9.48;;;18.00;99.90;;;;;;5031071;28;20264;-62
2023/07/28 02:55:59;;;;;;;7.80;5.18;;;18.10;99.90;;;;;;5030802;28;20573;-61
2023/07/28 02:58:26;;;;;;;5.88;4.78;;;18.20;99.90;;;;;;5030997;28;20232;-62
2023/07/28 03:00:53;;;;;;;4.72;4.10;;;18.20;99.90;;;;;;5031859;28;20232;-62
2023/07/28 03:03:20;;;;;;;7.65;4.57;;;18.30;99.90;;;;;;5034606;28;20210;-62
2023/07/28 03:05:47;;;;;;;5.78;3.67;;;18.30;99.90;;;;;;5034780;28;20210;-62
2023/07/28 03:08:13;;;;;;;3.92;3.20;;;18.30;99.90;;;;;;5035186;28;20230;-62
2023/07/28 03:10:42;;;;;;;6.10;3.08;;;18.30;99.90;;;;;;5035386;28;20451;-62
2023/07/28 03:13:08;;;;;;;9.45;7.30;;;18.40;99.90;;;;;;5034826;28;20202;-63
2023/07/28 03:15:35;;;;;;;5.57;4.28;;;18.40;99.90;;;;;;5034897;28;20206;-63
2023/07/28 03:18:02;;;;;;;3.55;3.25;;;18.40;99.90;;;;;;5034236;28;20230;-62
2023/07/28 03:20:28;;;;;;;7.40;3.20;;;18.50;99.90;;;;;;5034514;28;20320;-62
2023/07/28 03:22:55;;;;;;;2.97;2.55;;;18.50;99.90;;;;;;5034406;28;20212;-62
2023/07/28 03:25:22;;;;;;;3.85;3.45;;;18.50;99.90;;;;;;5034080;28;20202;-61
2023/07/28 03:27:50;;;;;;;3.38;2.92;;;18.50;99.90;;;;;;5034227;28;20217;-62
2023/07/28 03:30:17;;;;;;;5.32;4.18;;;18.60;99.90;;;;;;5034301;28;20218;-62
2023/07/28 03:32:43;;;;;;;3.33;2.78;;;18.60;99.90;;;;;;5033962;28;20217;-62
2023/07/28 03:35:10;;;;;;;2.97;2.45;;;18.60;99.90;;;;;;5034029;28;20361;-62
2023/07/28 03:37:37;;;;;;;3.47;2.85;;;18.60;99.90;;;;;;5033838;28;20823;-63
2023/07/28 03:40:04;;;;;;;3.53;2.83;;;18.40;99.90;;;;;;5034016;28;20566;-62
2023/07/28 03:42:31;;;;;;;3.05;2.75;;;18.30;99.90;;;;;;5033819;28;20295;-62
2023/07/28 03:44:59;;;;;;;5.90;3.20;;;18.40;99.90;;;;;;5034018;28;20312;-63
2023/07/28 03:47:25;;;;;;;4.68;3.17;;;18.40;99.90;;;;;;5033683;28;20214;-62
2023/07/28 03:49:52;;;;;;;4.20;3.55;;;18.40;99.90;;;;;;5033788;28;20230;-62
2023/07/28 03:52:19;;;;;;;3.20;2.90;;;18.40;99.90;;;;;;5033862;28;20662;-63
2023/07/28 03:54:45;;;;;;;4.47;3.30;;;18.40;99.90;;;;;;5033780;28;20214;-62
2023/07/28 03:57:12;;;;;;;4.97;3.53;;;18.50;99.90;;;;;;5034453;28;20214;-62
2023/07/28 03:59:39;;;;;;;4.93;3.92;;;18.60;99.90;;;;;;5035354;28;20230;-62
2023/07/28 04:02:07;;;;;;;4.80;3.22;;;18.60;99.90;;;;;;5035086;28;20230;-62
2023/07/28 04:04:34;;;;;;;4.53;3.63;;;18.70;99.90;;;;;;5034612;28;20213;-62
2023/07/28 04:07:00;;;;;;;3.63;3.15;;;18.60;99.90;;;;;;5033128;28;20207;-62
2023/07/28 04:09:28;;;;;;;3.65;3.25;;;18.70;99.90;;;;;;5033654;28;20230;-62
2023/07/28 04:11:54;;;;;;;5.72;4.47;;;18.70;99.90;;;;;;5033320;28;20263;-62
2023/07/28 04:14:21;;;;;;;4.65;3.42;;;18.70;99.90;;;;;;5033157;28;20210;-62
2023/07/28 04:16:48;;;;;;;4.95;3.58;;;18.80;99.90;;;;;;5033284;28;20558;-62
2023/07/28 04:19:16;;;;;;;3.50;3.20;;;18.80;99.90;;;;;;5033411;28;20706;-62
2023/07/28 04:21:43;;;;;;;4.90;3.05;;;18.80;99.90;;;;;;5033128;28;20226;-62
2023/07/28 04:24:11;;;;;;;4.97;3.65;;;18.90;99.90;;;;;;5033223;28;20296;-63
2023/07/28 04:26:37;;;;;;;5.47;3.25;;;18.90;99.90;;;;;;5032891;28;20663;-62
2023/07/28 04:29:04;;;;;;;4.95;3.38;;;19.00;99.90;;;;;;5033181;28;20552;-63
2023/07/28 04:31:31;;;;;;;3.85;3.00;;;19.00;99.90;;;;;;5033286;28;20203;-63
2023/07/28 04:33:58;;;;;;;4.15;3.25;;;19.00;99.90;;;;;;5033057;28;20592;-63
2023/07/28 04:36:26;;;;;;;6.22;3.33;;;19.00;99.90;;;;;;5032946;28;20233;-62
2023/07/28 04:38:53;;;;;;;4.30;2.85;;;19.10;99.90;;;;;;5033384;28;20334;-62
2023/07/28 04:41:20;;;;;;;5.30;3.20;;;19.00;99.90;;;;;;5032814;28;20226;-64
2023/07/28 04:43:47;;;;;;;3.05;2.65;;;19.00;99.90;;;;;;5032963;28;20218;-62
2023/07/28 04:46:14;;;;;;;4.28;3.10;;;18.90;99.90;;;;;;5032522;28;20566;-63
2023/07/28 04:48:40;;;;;;;6.28;3.80;;;18.70;99.90;;;;;;5032942;28;20253;-62
2023/07/28 04:51:07;;;;;;;5.40;3.88;;;18.70;99.90;;;;;;5032708;28;20237;-62
2023/07/28 04:53:35;;;;;;;4.85;3.45;;;18.70;99.90;;;;;;5032591;28;20214;-63
2023/07/28 04:56:03;;;;;;;7.32;3.03;;;18.70;99.90;;;;;;5032356;28;20210;-62
2023/07/28 04:58:30;;;;;;;3.90;3.22;;;18.70;99.90;;;;;;5032506;28;20661;-62
2023/07/28 05:00:56;;;;;;;4.75;2.97;;;18.80;99.90;;;;;;5032840;28;20202;-62
2023/07/28 05:03:23;;;;;;;5.70;3.40;;;18.70;99.90;;;;;;5032586;28;20206;-62
2023/07/28 05:05:50;;;;;;;4.03;3.10;;;18.80;99.90;;;;;;5032551;28;20214;-62
2023/07/28 05:08:17;;;;;;;5.88;2.97;;;18.80;99.90;;;;;;5032461;28;20234;-62
2023/07/28 05:10:45;;;;;;;4.18;3.05;;;18.80;99.90;;;;;;5032192;28;20693;-62
2023/07/28 05:13:12;;;;;;;4.13;3.47;;;18.90;99.90;;;;;;5032342;28;20210;-61
2023/07/28 05:15:39;;;;;;;5.95;4.00;;;18.90;99.90;;;;;;5032034;28;20217;-62
2023/07/28 05:18:05;;;;;;;5.60;3.58;;;19.00;99.90;;;;;;5031972;28;20621;-63
2023/07/28 05:20:32;;;;;;;4.50;3.67;;;19.00;99.90;;;;;;5032248;28;20208;-62
2023/07/28 05:22:59;;;;;;;3.88;3.03;;;19.10;99.90;;;;;;5032234;28;20374;-62
2023/07/28 05:25:25;;;;;;;4.07;3.22;;;19.10;99.90;;;;;;5031886;28;20206;-62
2023/07/28 05:27:53;;;;;;;3.88;3.47;;;19.20;99.90;;;;;;5031609;28;20906;-62
2023/07/28 05:30:20;;;;;;;3.90;3.03;;;19.20;99.90;;;;;;5032281;28;20206;-63
2023/07/28 05:32:48;;;;;;;4.57;2.88;;;19.30;99.90;;;;;;5032343;28;20238;-63
2023/07/28 05:35:16;;;;;;;2.95;2.63;;;19.30;99.90;;;;;;5032138;28;20214;-64
2023/07/28 05:37:43;;;;;;;4.20;2.65;;;19.40;99.90;;;;;;5031626;28;20206;-63
2023/07/28 05:40:11;;;;;;;6.35;3.08;;;19.40;99.90;;;;;;5031891;28;20251;-62
2023/07/28 05:42:38;;;;;;;4.78;2.90;;;19.40;99.90;;;;;;5031737;28;20230;-62
2023/07/28 05:45:07;;;;;;;4.38;2.85;;;19.50;99.90;;;;;;5031645;28;20228;-62
2023/07/28 05:47:34;;;;;;;6.03;3.25;;;19.60;99.90;;;;;;5031792;28;20635;-62
2023/07/28 05:50:01;;;;;;;4.00;3.20;;;19.70;99.90;;;;;;5032160;28;20241;-62
2023/07/28 05:52:28;;;;;;;3.95;3.03;;;19.80;99.90;;;;;;5031949;28;20210;-63
2023/07/28 05:54:55;;;;;;;4.45;2.65;;;19.80;99.90;;;;;;5031527;28;20694;-62
2023/07/28 05:57:21;;;;;;;4.88;3.10;;;19.90;99.90;;;;;;5031222;28;20603;-62
2023/07/28 05:59:48;;;;;;;4.63;2.92;;;20.00;99.90;;;;;;5031273;28;20325;-62
2023/07/28 06:02:16;;;;;;;6.00;3.15;;;20.20;99.90;;;;;;5031490;28;20225;-61
2023/07/28 06:04:43;;;;;;;7.05;3.05;;;20.10;99.90;;;;;;5031311;28;20210;-61
2023/07/28 06:07:11;;;;;;;5.05;3.28;;;20.10;99.90;;;;;;5031107;28;20559;-63
2023/07/28 06:09:37;;;;;;;5.78;3.30;;;20.20;99.90;;;;;;5031197;28;20709;-62
2023/07/28 06:12:05;;;;;;;8.70;3.97;;;20.20;99.90;;;;;;5031045;28;20214;-63
2023/07/28 06:14:32;;;;;;;8.75;3.80;;;20.30;99.90;;;;;;5031249;28;20700;-63
2023/07/28 06:16:58;;;;;;;4.90;3.30;;;20.30;99.90;;;;;;5031026;28;20214;-63
2023/07/28 06:19:26;;;;;;;9.15;4.07;;;20.40;99.90;;;;;;5031205;28;20242;-63
2023/07/28 06:21:54;;;;;;;5.75;3.67;;;20.40;99.90;;;;;;5031143;28;20266;-63
2023/07/28 06:24:21;;;;;;;6.05;4.05;;;20.40;99.90;;;;;;5031282;28;20233;-63
2023/07/28 06:26:47;;;;;;;67.32;60.17;;;20.50;99.90;;;;;;5030719;28;20202;-63
2023/07/28 06:29:15;;;;;;;7.85;6.30;;;20.50;99.90;;;;;;5031584;28;20717;-62
2023/07/28 06:31:42;;;;;;;7.63;3.30;;;20.40;99.90;;;;;;5031581;28;20238;-62
2023/07/28 06:34:08;;;;;;;5.53;3.35;;;20.40;99.90;;;;;;5031712;28;20206;-62
2023/07/28 06:36:37;;;;;;;6.20;3.53;;;20.40;99.90;;;;;;5030829;28;20248;-62
2023/07/28 06:39:04;;;;;;;7.20;3.28;;;20.40;99.90;;;;;;5031387;28;20621;-62
2023/07/28 06:41:31;;;;;;;5.38;3.20;;;20.40;99.90;;;;;;5031766;28;20210;-61
2023/07/28 06:43:57;;;;;;;5.63;3.50;;;20.40;99.90;;;;;;5031581;28;20214;-62
2023/07/28 06:46:24;;;;;;;5.25;3.67;;;20.50;99.90;;;;;;5031026;28;20585;-62
2023/07/28 06:48:51;;;;;;;6.47;3.42;;;20.50;99.90;;;;;;5030626;28;20230;-61
2023/07/28 06:51:18;;;;;;;6.85;3.30;;;20.50;99.90;;;;;;5031121;28;20446;-62
2023/07/28 06:53:46;;;;;;;6.60;3.70;;;20.60;99.90;;;;;;5030795;28;20198;-62
2023/07/28 06:56:12;;;;;;;8.02;3.90;;;20.60;99.90;;;;;;5031324;28;20561;-62
2023/07/28 06:58:39;;;;;;;4.93;3.53;;;20.60;99.90;;;;;;5031809;28;20317;-62
2023/07/28 07:01:08;;;;;;;7.65;3.78;;;20.70;99.90;;;;;;5031919;28;20264;-63
2023/07/28 07:03:35;;;;;;;4.88;3.35;;;20.70;99.90;;;;;;5032290;28;20739;-62
2023/07/28 07:06:02;;;;;;;7.97;3.55;;;20.70;99.90;;;;;;5031350;28;20210;-61
2023/07/28 07:08:29;;;;;;;7.45;3.60;;;20.70;99.90;;;;;;5031428;28;20317;-62
2023/07/28 07:10:57;;;;;;;7.38;3.33;;;20.70;99.90;;;;;;5031222;28;20202;-62
2023/07/28 07:13:23;;;;;;;5.47;3.70;;;20.80;99.90;;;;;;5031085;28;20202;-62
2023/07/28 07:15:50;;;;;;;9.15;6.70;;;20.90;99.90;;;;;;5031617;28;20216;-64
2023/07/28 07:18:17;;;;;;;7.00;3.60;;;21.00;99.90;;;;;;5031714;28;20268;-62
2023/07/28 07:20:44;;;;;;;4.53;3.70;;;21.30;99.90;;;;;;5033166;28;20206;-62
2023/07/28 07:23:11;;;;;;;4.25;3.28;;;21.40;99.90;;;;;;5031849;28;20245;-61
2023/07/28 07:25:38;;;;;;;6.00;3.10;;;21.60;99.90;;;;;;5031364;28;20214;-61
2023/07/28 07:28:06;;;;;;;6.28;3.42;;;21.70;99.90;;;;;;5031825;28;20242;-62
2023/07/28 07:30:34;;;;;;;6.13;3.00;;;21.90;99.90;;;;;;5031675;28;20230;-62
2023/07/28 07:33:01;;;;;;;4.35;3.30;;;21.90;99.90;;;;;;5031515;28;20198;-62
2023/07/28 07:35:28;;;;;;;4.00;3.03;;;21.90;99.90;;;;;;5031749;28;20202;-62
2023/07/28 07:37:55;;;;;;;4.22;2.78;;;21.70;99.90;;;;;;5032263;28;20237;-62
2023/07/28 07:40:23;;;;;;;3.35;3.05;;;21.70;99.90;;;;;;5031875;28;20586;-62
2023/07/28 07:42:50;;;;;;;4.00;3.05;;;21.70;99.90;;;;;;5030789;28;20226;-62
2023/07/28 07:45:18;;;;;;;5.05;4.03;;;21.90;99.90;;;;;;5030681;28;20266;-62
2023/07/28 07:47:45;;;;;;;4.55;3.20;;;22.00;99.90;;;;;;5030925;28;20202;-62
2023/07/28 07:50:13;;;;;;;4.45;3.15;;;22.20;99.90;;;;;;5034230;28;20554;-62
2023/07/28 07:52:40;;;;;;;3.42;2.80;;;22.50;99.90;;;;;;5034098;28;20309;-62
2023/07/28 07:55:07;;;;;;;4.57;3.30;;;22.90;99.90;;;;;;5033862;28;20701;-62
2023/07/28 07:57:34;;;;;;;5.05;3.20;;;23.20;99.90;;;;;;5033776;28;20210;-62
2023/07/28 08:00:00;;;;;;;3.47;2.53;;;23.50;99.90;;;;;;5033885;28;20207;-62
2023/07/28 08:02:29;;;;;;;3.33;2.70;;;23.40;99.90;;;;;;5033692;28;20690;-61
2023/07/28 08:04:55;;;;;;;2.78;2.47;;;23.30;99.90;;;;;;5033693;28;20211;-62
2023/07/28 08:07:23;;;;;;;4.47;2.75;;;22.90;99.90;;;;;;5033377;28;20300;-62
2023/07/28 08:09:49;;;;;;;3.72;2.72;;;22.60;99.90;;;;;;5033788;28;20262;-61
2023/07/28 08:12:17;;;;;;;6.63;5.93;;;22.30;99.90;;;;;;5034129;28;20202;-62
2023/07/28 08:14:43;;;;;;;5.82;3.22;;;22.30;99.90;;;;;;5034649;28;20207;-62
2023/07/28 08:17:10;;;;;;;7.30;3.70;;;22.50;99.90;;;;;;5034021;28;20678;-61
2023/07/28 08:19:39;;;;;;;7.55;3.10;;;22.40;99.90;;;;;;5034124;28;20230;-61
2023/07/28 08:22:06;;;;;;;3.70;2.80;;;22.30;99.90;;;;;;5033970;28;20202;-62
2023/07/28 08:24:33;;;;;;;4.50;2.85;;;22.30;99.90;;;;;;5033759;28;20206;-62
2023/07/28 08:26:59;;;;;;;4.10;2.97;;;22.20;99.90;;;;;;5034031;28;20214;-62
2023/07/28 08:29:26;;;;;;;2.92;2.65;;;22.00;99.90;;;;;;5033569;28;20230;-60
2023/07/28 08:31:53;;;;;;;3.28;2.60;;;22.10;99.90;;;;;;5033988;28;20280;-61
2023/07/28 08:34:20;;;;;;;4.95;3.28;;;22.30;99.90;;;;;;5033166;28;20206;-62
2023/07/28 08:36:48;;;;;;;4.93;3.20;;;22.40;99.90;;;;;;5033475;28;20214;-63
2023/07/28 08:39:15;;;;;;;4.07;3.30;;;22.50;99.90;;;;;;5033755;28;20234;-62
2023/07/28 08:41:42;;;;;;;4.07;3.25;;;22.60;99.90;;;;;;5033577;28;20232;-61
2023/07/28 08:44:09;;;;;;;3.85;3.13;;;22.60;99.90;;;;;;5033278;28;20305;-62
2023/07/28 08:46:36;;;;;;;4.18;3.15;;;22.70;99.90;;;;;;5032827;28;20214;-62
2023/07/28 08:49:03;;;;;;;4.57;3.40;;;22.80;99.90;;;;;;5033136;28;20234;-61
2023/07/28 08:51:29;;;;;;;5.28;3.95;;;22.70;99.90;;;;;;5033599;28;20213;-62
2023/07/28 08:53:57;;;;;;;4.30;2.83;;;22.80;99.90;;;;;;5034113;28;20210;-59
2023/07/28 08:56:26;;;;;;;4.00;3.38;;;22.80;99.90;;;;;;5034021;28;20213;-57
2023/07/28 08:58:59;;;;;;;4.22;3.55;;;23.00;99.90;;;;;;5033611;28;20300;-57
2023/07/28 09:01:25;;;;;;;5.15;3.95;;;23.00;99.90;;;;;;5034275;28;20217;-58
2023/07/28 09:03:52;;;;;;;4.82;3.22;;;23.20;99.90;;;;;;5033873;28;20230;-57
2023/07/28 09:06:19;;;;;;;6.40;3.58;;;23.30;99.90;;;;;;5033690;28;20209;-59
2023/07/28 09:08:46;;;;;;;3.13;2.83;;;23.30;99.90;;;;;;5033101;28;20254;-57
2023/07/28 09:11:15;;;;;;;4.05;3.17;;;23.40;99.90;;;;;;5033295;28;20709;-57
2023/07/28 09:13:42;;;;;;;4.53;3.35;;;23.40;99.90;;;;;;5033193;28;20678;-58
2023/07/28 09:16:18;;;;;;;4.47;2.70;;;23.50;99.90;;;;;;5033003;28;20213;-57
2023/07/28 09:18:44;;;;;;;3.78;3.00;;;23.60;99.90;;;;;;5033088;28;20303;-60
2023/07/28 09:21:18;;;;;;;5.07;3.47;;;23.70;99.90;;;;;;5032776;28;20237;-59
2023/07/28 09:23:44;;;;;;;4.00;3.20;;;23.60;99.90;;;;;;5032556;28;20218;-59
2023/07/28 09:26:11;;;;;;;3.80;2.92;;;23.50;99.90;;;;;;5032560;28;20225;-60
2023/07/28 09:28:41;;;;;;;3.90;3.35;;;23.50;99.90;;;;;;5032781;28;20237;-59
2023/07/28 09:31:09;;;;;;;5.78;3.15;;;23.70;99.90;;;;;;5033018;28;20213;-60
2023/07/28 09:33:37;;;;;;;5.35;3.58;;;23.90;99.90;;;;;;5032873;28;20206;-60
2023/07/28 09:36:09;;;;;;;4.25;2.90;;;24.50;99.90;;;;;;5032866;28;20206;-60
2023/07/28 09:38:37;;;;;;;3.92;3.20;;;25.20;99.90;;;;;;5033723;28;20230;-60
2023/07/28 09:41:07;;;;;;;5.90;3.95;;;25.80;99.90;;;;;;5033299;28;20206;-60
2023/07/28 09:43:34;;;;;;;3.63;2.90;;;26.30;99.90;;;;;;5032591;28;20361;-60
2023/07/28 09:46:06;;;;;;;3.00;2.38;;;26.80;99.90;;;;;;5032241;28;20206;-61
2023/07/28 09:48:34;;;;;;;4.45;3.30;;;27.20;99.90;;;;;;5032200;28;20757;-61
2023/07/28 09:51:09;;;;;;;3.00;2.70;;;27.60;99.90;;;;;;5032028;28;20677;-60
2023/07/28 09:53:41;;;;;;;3.30;2.40;;;28.10;99.90;;;;;;5032805;28;20206;-62
2023/07/28 09:56:09;;;;;;;3.50;3.20;;;28.50;99.90;;;;;;5032251;28;20674;-60
2023/07/28 09:58:41;;;;;;;5.20;3.13;;;28.60;99.90;;;;;;5032363;28;20230;-61
2023/07/28 10:01:10;;;;;;;4.70;2.60;;;28.60;99.90;;;;;;5032072;28;20681;-61
2023/07/28 10:03:38;;;;;;;4.85;2.60;;;28.70;99.90;;;;;;5031914;28;20545;-61
2023/07/28 10:06:05;;;;;;;4.55;2.70;;;29.20;99.90;;;;;;5032160;28;20245;-62
2023/07/28 10:08:33;;;;;;;4.20;2.38;;;29.50;99.90;;;;;;5032102;28;20225;-63
2023/07/28 10:11:02;;;;;;;2.63;2.20;;;29.50;99.90;;;;;;5031148;28;20688;-60
2023/07/28 10:13:28;;;;;;;4.97;2.33;;;29.50;99.90;;;;;;5031755;28;20210;-61
2023/07/28 10:15:55;;;;;;;3.20;2.20;;;29.50;99.90;;;;;;5031244;28;20697;-60
2023/07/28 10:18:26;;;;;;;2.33;1.50;;;29.40;99.90;;;;;;5031750;28;20233;-60
2023/07/28 10:20:53;;;;;;;4.40;1.90;;;29.40;99.90;;;;;;5031655;28;20210;-61
2023/07/28 10:23:22;;;;;;;3.90;1.73;;;29.20;99.90;;;;;;5031535;28;20222;-62
2023/07/28 10:25:57;;;;;;;2.08;1.63;;;29.10;99.90;;;;;;5031162;28;20279;-62
2023/07/28 10:28:30;;;;;;;2.80;1.88;;;29.00;99.90;;;;;;5031404;28;20609;-62
2023/07/28 10:30:59;;;;;;;3.13;2.15;;;29.00;99.90;;;;;;5032008;28;20301;-61
2023/07/28 10:33:34;;;;;;;5.18;3.17;;;28.90;99.90;;;;;;5031436;28;20206;-61
2023/07/28 10:36:12;;;;;;;3.42;2.80;;;28.90;99.90;;;;;;5031903;28;20263;-61
2023/07/28 10:38:39;;;;;;;3.15;2.42;;;28.80;99.90;;;;;;5032480;28;20555;-61
2023/07/28 10:41:10;;;;;;;2.72;1.90;;;28.80;99.90;;;;;;5032654;28;20213;-60
2023/07/28 10:43:39;;;;;;;2.28;1.90;;;28.80;99.90;;;;;;5032400;28;20261;-60
2023/07/28 10:46:07;;;;;;;3.78;2.47;;;28.70;99.90;;;;;;5031523;28;20220;-62
2023/07/28 10:48:36;;;;;;;2.83;1.95;;;28.50;99.90;;;;;;5031544;28;20222;-60
2023/07/28 10:51:03;;;;;;;2.40;1.92;;;28.00;99.90;;;;;;5031526;28;20308;-61
2023/07/28 10:53:32;;;;;;;4.38;2.25;;;27.70;99.90;;;;;;5031945;28;20206;-61
2023/07/28 10:55:59;;;;;;;9.32;4.15;;;27.60;99.90;;;;;;5031653;28;20206;-60
2023/07/28 10:58:26;;;;;;;6.80;3.00;;;27.40;99.90;;;;;;5031466;28;20265;-61
2023/07/28 11:00:53;;;;;;;5.88;3.45;;;27.30;99.90;;;;;;5031590;28;20255;-61
2023/07/28 11:03:20;;;;;;;3.05;2.03;;;27.20;99.90;;;;;;5031347;28;20237;-61
2023/07/28 11:05:50;;;;;;;3.05;2.30;;;27.20;99.90;;;;;;5030843;28;20206;-62
2023/07/28 11:08:17;;;;;;;2.63;2.20;;;27.10;99.90;;;;;;5031316;28;20238;-61
2023/07/28 11:10:44;;;;;;;5.07;2.08;;;26.90;99.90;;;;;;5031317;28;20214;-60
2023/07/28 11:13:11;;;;;;;3.40;2.50;;;26.90;99.90;;;;;;5030835;28;20210;-61
2023/07/28 11:15:38;;;;;;;3.20;1.90;;;26.80;99.90;;;;;;5030800;28;20286;-62
2023/07/28 11:18:06;;;;;;;4.10;1.92;;;26.80;99.90;;;;;;5030866;28;20264;-61
2023/07/28 11:20:33;;;;;;;2.67;2.30;;;26.80;99.90;;;;;;5030829;28;20725;-61
2023/07/28 11:23:03;;;;;;;4.80;1.92;;;26.90;99.90;;;;;;5033212;28;20213;-61
2023/07/28 11:25:31;;;;;;;3.92;1.80;;;27.00;99.90;;;;;;5034678;28;20210;-61
2023/07/28 11:28:01;;;;;;;3.90;2.15;;;27.20;99.90;;;;;;5034649;28;20242;-60
2023/07/28 11:30:28;;;;;;;3.40;1.80;;;27.10;99.90;;;;;;5034612;28;20506;-60
2023/07/28 11:32:55;;;;;;;4.47;2.50;;;26.90;99.90;;;;;;5034417;28;20216;-60
2023/07/28 11:35:23;;;;;;;7.03;2.88;;;26.70;99.90;;;;;;5034513;28;20232;-60
2023/07/28 11:37:52;;;;;;;2.67;2.17;;;26.60;99.90;;;;;;5034313;28;20206;-61
2023/07/28 11:40:21;;;;;;;3.63;2.55;;;26.50;99.90;;;;;;5034546;28;20293;-61
2023/07/28 11:42:52;;;;;;;3.50;1.67;;;26.70;99.90;;;;;;5034296;28;20228;-61
2023/07/28 11:45:19;;;;;;;1.92;1.40;;;27.00;99.90;;;;;;5034098;28;20230;-61
2023/07/28 11:47:56;;;;;;;3.22;1.50;;;27.10;99.90;;;;;;5034092;28;20202;-60
2023/07/28 11:50:24;;;;;;;1.52;1.33;;;27.00;99.90;;;;;;5034213;28;20210;-61
2023/07/28 11:52:50;;;;;;;1.60;1.40;;;27.30;99.90;;;;;;5034206;28;20248;-61
2023/07/28 11:55:17;;;;;;;1.25;1.15;;;27.50;99.90;;;;;;5034086;28;20584;-60
2023/07/28 11:57:46;;;;;;;1.33;1.23;;;27.80;99.90;;;;;;5033769;28;20203;-60
2023/07/28 12:00:16;;;;;;;1.30;1.20;;;28.00;99.90;;;;;;5033885;28;20305;-60
2023/07/28 12:02:44;;;;;;;3.33;1.55;;;28.50;99.90;;;;;;5034184;28;20669;-61
2023/07/28 12:05:13;;;;;;;1.38;1.27;;;29.00;99.90;;;;;;5034109;28;20233;-61
2023/07/28 12:07:40;;;;;;;2.63;1.30;;;29.20;99.90;;;;;;5033741;28;20202;-61
2023/07/28 12:10:09;;;;;;;1.45;1.30;;;28.90;99.90;;;;;;5034035;28;20206;-61
2023/07/28 12:12:41;;;;;;;1.65;1.20;;;28.80;99.90;;;;;;5033689;28;20661;-61
2023/07/28 12:15:22;;;;;;;1.42;1.00;;;28.70;99.90;;;;;;5033968;28;20221;-61
2023/07/28 12:18:09;;;;;;;1.15;1.00;;;28.80;99.90;;;;;;5033621;28;20202;-60
2023/07/28 12:20:41;;;;;;;0.90;0.82;;;29.20;99.90;;;;;;5033793;28;20666;-62
2023/07/28 12:23:08;;;;;;;1.27;1.17;;;29.50;99.90;;;;;;5033532;28;20241;-61
2023/07/28 12:25:37;;;;;;;2.03;1.50;;;29.40;99.90;;;;;;5033789;28;20253;-61
2023/07/28 12:28:04;;;;;;;1.00;0.90;;;29.40;99.90;;;;;;5034112;28;20305;-62
2023/07/28 12:30:33;;;;;;;2.75;1.35;;;29.20;99.90;;;;;;5033724;28;20211;-61
2023/07/28 12:33:00;;;;;;;2.55;1.60;;;29.30;99.90;;;;;;5033550;28;20207;-62
2023/07/28 12:35:30;;;;;;;2.13;1.50;;;29.20;99.90;;;;;;5032733;28;20205;-62
2023/07/28 12:37:59;;;;;;;3.15;1.40;;;29.10;99.90;;;;;;5033054;28;20346;-61
2023/07/28 12:40:27;;;;;;;1.35;1.25;;;29.00;99.90;;;;;;5033311;28;20238;-62
2023/07/28 12:42:54;;;;;;;1.98;1.40;;;29.00;99.90;;;;;;5033442;28;20202;-61
2023/07/28 12:45:21;;;;;;;2.40;1.35;;;28.80;99.90;;;;;;5032815;28;20230;-63
2023/07/28 12:47:49;;;;;;;1.40;1.30;;;28.70;99.90;;;;;;5032999;28;20654;-63